sensor_id;sensor_type;location;lat;lon;timestamp;P1;durP1;ratioP1;P2;durP2;ratioP2
75667;SDS011;64266;48.798;44.756;2022-12-18T00:01:02;43.22;;;14.48;;
75667;SDS011;64266;48.798;44.756;2022-12-18T00:03:32;38.75;;;13.48;;
75667;SDS011;64266;48.798;44.756;2022-12-18T00:05:58;37.95;;;14.73;;
75667;SDS011;64266;48.798;44.756;2022-12-18T00:08:24;41.25;;;15.10;;
75667;SDS011;64266;48.798;44.756;2022-12-18T00:10:51;42.05;;;14.15;;
75667;SDS011;64266;48.798;44.756;2022-12-18T00:13:18;42.78;;;15.45;;
75667;SDS011;64266;48.798;44.756;2022-12-18T00:15:43;61.65;;;15.40;;
75667;SDS011;64266;48.798;44.756;2022-12-18T00:18:10;42.45;;;13.60;;
75667;SDS011;64266;48.798;44.756;2022-12-18T00:20:37;41.92;;;14.73;;
75667;SDS011;64266;48.798;44.756;2022-12-18T00:23:03;33.90;;;13.13;;
75667;SDS011;64266;48.798;44.756;2022-12-18T00:25:32;31.42;;;13.02;;
75667;SDS011;64266;48.798;44.756;2022-12-18T00:27:59;35.40;;;13.18;;
75667;SDS011;64266;48.798;44.756;2022-12-18T00:30:25;36.80;;;13.82;;
75667;SDS011;64266;48.798;44.756;2022-12-18T00:32:52;34.72;;;12.35;;
75667;SDS011;64266;48.798;44.756;2022-12-18T00:35:18;37.22;;;13.68;;
75667;SDS011;64266;48.798;44.756;2022-12-18T00:37:45;39.72;;;13.35;;
75667;SDS011;64266;48.798;44.756;2022-12-18T00:40:11;43.90;;;16.17;;
75667;SDS011;64266;48.798;44.756;2022-12-18T00:42:38;42.30;;;15.63;;
75667;SDS011;64266;48.798;44.756;2022-12-18T00:45:29;31.50;;;12.55;;
75667;SDS011;64266;48.798;44.756;2022-12-18T00:47:56;40.53;;;14.23;;
75667;SDS011;64266;48.798;44.756;2022-12-18T00:50:23;36.88;;;13.38;;
75667;SDS011;64266;48.798;44.756;2022-12-18T00:52:50;41.88;;;12.70;;
75667;SDS011;64266;48.798;44.756;2022-12-18T00:55:17;46.42;;;14.82;;
75667;SDS011;64266;48.798;44.756;2022-12-18T00:57:46;33.95;;;13.57;;
75667;SDS011;64266;48.798;44.756;2022-12-18T01:00:12;33.13;;;13.55;;
75667;SDS011;64266;48.798;44.756;2022-12-18T01:02:40;37.63;;;13.65;;
75667;SDS011;64266;48.798;44.756;2022-12-18T01:05:07;30.33;;;12.00;;
75667;SDS011;64266;48.798;44.756;2022-12-18T01:07:33;47.15;;;15.27;;
75667;SDS011;64266;48.798;44.756;2022-12-18T01:10:02;40.10;;;14.48;;
75667;SDS011;64266;48.798;44.756;2022-12-18T01:12:28;38.42;;;14.05;;
75667;SDS011;64266;48.798;44.756;2022-12-18T01:14:55;36.60;;;13.98;;
75667;SDS011;64266;48.798;44.756;2022-12-18T01:17:21;32.55;;;12.15;;
75667;SDS011;64266;48.798;44.756;2022-12-18T01:19:48;37.42;;;15.20;;
75667;SDS011;64266;48.798;44.756;2022-12-18T01:22:13;34.13;;;14.48;;
75667;SDS011;64266;48.798;44.756;2022-12-18T01:24:40;38.92;;;14.10;;
75667;SDS011;64266;48.798;44.756;2022-12-18T01:27:05;35.38;;;14.18;;
75667;SDS011;64266;48.798;44.756;2022-12-18T01:29:32;34.28;;;15.25;;
75667;SDS011;64266;48.798;44.756;2022-12-18T01:31:58;46.85;;;14.70;;
75667;SDS011;64266;48.798;44.756;2022-12-18T01:34:25;36.63;;;14.45;;
75667;SDS011;64266;48.798;44.756;2022-12-18T01:36:50;39.60;;;15.63;;
75667;SDS011;64266;48.798;44.756;2022-12-18T01:39:18;33.40;;;13.25;;
75667;SDS011;64266;48.798;44.756;2022-12-18T01:41:44;33.90;;;13.10;;
75667;SDS011;64266;48.798;44.756;2022-12-18T01:47:32;47.03;;;16.33;;
75667;SDS011;64266;48.798;44.756;2022-12-18T01:50:00;46.00;;;13.23;;
75667;SDS011;64266;48.798;44.756;2022-12-18T01:52:31;43.92;;;14.60;;
75667;SDS011;64266;48.798;44.756;2022-12-18T01:54:59;42.83;;;14.25;;
75667;SDS011;64266;48.798;44.756;2022-12-18T01:57:28;52.65;;;15.18;;
75667;SDS011;64266;48.798;44.756;2022-12-18T01:59:56;39.00;;;13.82;;
75667;SDS011;64266;48.798;44.756;2022-12-18T02:02:26;43.10;;;16.40;;
75667;SDS011;64266;48.798;44.756;2022-12-18T02:04:54;41.88;;;14.68;;
75667;SDS011;64266;48.798;44.756;2022-12-18T02:07:25;41.80;;;15.15;;
75667;SDS011;64266;48.798;44.756;2022-12-18T02:10:24;39.05;;;14.18;;
75667;SDS011;64266;48.798;44.756;2022-12-18T02:13:08;36.85;;;14.32;;
75667;SDS011;64266;48.798;44.756;2022-12-18T02:18:52;31.55;;;12.75;;
75667;SDS011;64266;48.798;44.756;2022-12-18T02:24:34;34.78;;;13.88;;
75667;SDS011;64266;48.798;44.756;2022-12-18T02:27:09;53.20;;;15.95;;
75667;SDS011;64266;48.798;44.756;2022-12-18T02:29:58;39.15;;;15.27;;
75667;SDS011;64266;48.798;44.756;2022-12-18T02:32:32;43.13;;;15.52;;
75667;SDS011;64266;48.798;44.756;2022-12-18T02:37:29;31.40;;;14.05;;
75667;SDS011;64266;48.798;44.756;2022-12-18T02:40:00;43.28;;;14.65;;
75667;SDS011;64266;48.798;44.756;2022-12-18T02:42:31;42.13;;;14.88;;
75667;SDS011;64266;48.798;44.756;2022-12-18T02:45:02;38.10;;;15.02;;
75667;SDS011;64266;48.798;44.756;2022-12-18T02:47:34;39.42;;;16.10;;
75667;SDS011;64266;48.798;44.756;2022-12-18T02:50:13;40.15;;;16.63;;
75667;SDS011;64266;48.798;44.756;2022-12-18T02:55:39;42.50;;;15.60;;
75667;SDS011;64266;48.798;44.756;2022-12-18T02:58:40;47.97;;;16.08;;
75667;SDS011;64266;48.798;44.756;2022-12-18T03:01:34;38.65;;;16.00;;
75667;SDS011;64266;48.798;44.756;2022-12-18T03:04:25;44.53;;;16.95;;
75667;SDS011;64266;48.798;44.756;2022-12-18T03:06:56;38.75;;;15.40;;
75667;SDS011;64266;48.798;44.756;2022-12-18T03:09:28;49.53;;;16.05;;
75667;SDS011;64266;48.798;44.756;2022-12-18T03:12:00;51.72;;;16.92;;
75667;SDS011;64266;48.798;44.756;2022-12-18T03:15:10;50.50;;;16.63;;
75667;SDS011;64266;48.798;44.756;2022-12-18T03:18:04;36.10;;;14.85;;
75667;SDS011;64266;48.798;44.756;2022-12-18T03:20:37;35.42;;;14.68;;
75667;SDS011;64266;48.798;44.756;2022-12-18T03:23:07;41.17;;;16.42;;
75667;SDS011;64266;48.798;44.756;2022-12-18T03:25:37;46.13;;;16.75;;
75667;SDS011;64266;48.798;44.756;2022-12-18T03:28:08;42.83;;;15.15;;
75667;SDS011;64266;48.798;44.756;2022-12-18T03:30:39;42.78;;;15.48;;
75667;SDS011;64266;48.798;44.756;2022-12-18T03:33:17;42.50;;;16.17;;
75667;SDS011;64266;48.798;44.756;2022-12-18T03:35:50;36.85;;;15.98;;
75667;SDS011;64266;48.798;44.756;2022-12-18T03:38:18;40.00;;;15.45;;
75667;SDS011;64266;48.798;44.756;2022-12-18T03:46:15;43.65;;;16.55;;
75667;SDS011;64266;48.798;44.756;2022-12-18T03:49:12;37.88;;;15.02;;
75667;SDS011;64266;48.798;44.756;2022-12-18T03:51:42;39.45;;;15.45;;
75667;SDS011;64266;48.798;44.756;2022-12-18T03:54:10;37.90;;;15.63;;
75667;SDS011;64266;48.798;44.756;2022-12-18T03:56:50;40.47;;;15.27;;
75667;SDS011;64266;48.798;44.756;2022-12-18T03:59:24;41.22;;;16.83;;
75667;SDS011;64266;48.798;44.756;2022-12-18T04:01:52;48.30;;;16.42;;
75667;SDS011;64266;48.798;44.756;2022-12-18T04:04:22;41.17;;;15.77;;
75667;SDS011;64266;48.798;44.756;2022-12-18T04:06:51;40.58;;;15.95;;
75667;SDS011;64266;48.798;44.756;2022-12-18T04:09:19;39.40;;;15.45;;
75667;SDS011;64266;48.798;44.756;2022-12-18T04:11:46;34.80;;;15.52;;
75667;SDS011;64266;48.798;44.756;2022-12-18T04:14:15;36.15;;;15.88;;
75667;SDS011;64266;48.798;44.756;2022-12-18T04:16:41;32.80;;;13.75;;
75667;SDS011;64266;48.798;44.756;2022-12-18T04:19:10;36.78;;;14.38;;
75667;SDS011;64266;48.798;44.756;2022-12-18T04:21:39;37.63;;;16.65;;
75667;SDS011;64266;48.798;44.756;2022-12-18T04:24:06;40.58;;;15.70;;
75667;SDS011;64266;48.798;44.756;2022-12-18T04:26:34;36.85;;;15.85;;
75667;SDS011;64266;48.798;44.756;2022-12-18T04:29:26;40.92;;;15.80;;
75667;SDS011;64266;48.798;44.756;2022-12-18T04:31:52;45.92;;;15.93;;
75667;SDS011;64266;48.798;44.756;2022-12-18T04:34:18;36.78;;;14.23;;
75667;SDS011;64266;48.798;44.756;2022-12-18T04:36:49;42.00;;;15.95;;
75667;SDS011;64266;48.798;44.756;2022-12-18T04:39:15;43.80;;;16.90;;
75667;SDS011;64266;48.798;44.756;2022-12-18T04:41:44;50.03;;;15.25;;
75667;SDS011;64266;48.798;44.756;2022-12-18T04:44:11;41.53;;;16.10;;
75667;SDS011;64266;48.798;44.756;2022-12-18T04:46:37;35.13;;;15.85;;
75667;SDS011;64266;48.798;44.756;2022-12-18T04:49:03;41.72;;;15.68;;
75667;SDS011;64266;48.798;44.756;2022-12-18T04:51:29;35.25;;;16.05;;
75667;SDS011;64266;48.798;44.756;2022-12-18T04:53:54;38.38;;;15.10;;
75667;SDS011;64266;48.798;44.756;2022-12-18T04:56:20;46.10;;;17.55;;
75667;SDS011;64266;48.798;44.756;2022-12-18T04:58:46;40.05;;;15.02;;
75667;SDS011;64266;48.798;44.756;2022-12-18T05:01:12;41.28;;;16.15;;
75667;SDS011;64266;48.798;44.756;2022-12-18T05:03:40;32.72;;;14.90;;
75667;SDS011;64266;48.798;44.756;2022-12-18T05:06:06;36.00;;;15.02;;
75667;SDS011;64266;48.798;44.756;2022-12-18T05:08:33;42.85;;;15.07;;
75667;SDS011;64266;48.798;44.756;2022-12-18T05:11:09;47.63;;;15.05;;
75667;SDS011;64266;48.798;44.756;2022-12-18T05:13:39;38.35;;;15.10;;
75667;SDS011;64266;48.798;44.756;2022-12-18T05:16:05;38.80;;;14.98;;
75667;SDS011;64266;48.798;44.756;2022-12-18T05:18:32;40.00;;;14.20;;
75667;SDS011;64266;48.798;44.756;2022-12-18T05:20:58;35.05;;;14.07;;
75667;SDS011;64266;48.798;44.756;2022-12-18T05:23:24;36.58;;;15.15;;
75667;SDS011;64266;48.798;44.756;2022-12-18T05:25:55;44.38;;;15.32;;
75667;SDS011;64266;48.798;44.756;2022-12-18T05:28:30;40.60;;;15.43;;
75667;SDS011;64266;48.798;44.756;2022-12-18T05:30:58;39.80;;;13.20;;
75667;SDS011;64266;48.798;44.756;2022-12-18T05:33:26;27.73;;;13.85;;
75667;SDS011;64266;48.798;44.756;2022-12-18T05:35:55;35.50;;;13.13;;
75667;SDS011;64266;48.798;44.756;2022-12-18T05:38:24;38.83;;;14.57;;
75667;SDS011;64266;48.798;44.756;2022-12-18T05:40:50;29.15;;;13.13;;
75667;SDS011;64266;48.798;44.756;2022-12-18T05:43:25;39.13;;;14.48;;
75667;SDS011;64266;48.798;44.756;2022-12-18T05:45:51;30.10;;;13.20;;
75667;SDS011;64266;48.798;44.756;2022-12-18T05:48:18;30.52;;;13.45;;
75667;SDS011;64266;48.798;44.756;2022-12-18T05:50:45;45.60;;;16.60;;
75667;SDS011;64266;48.798;44.756;2022-12-18T05:53:17;38.78;;;12.82;;
75667;SDS011;64266;48.798;44.756;2022-12-18T05:55:45;31.77;;;13.27;;
75667;SDS011;64266;48.798;44.756;2022-12-18T05:58:12;37.35;;;14.15;;
75667;SDS011;64266;48.798;44.756;2022-12-18T06:00:41;32.45;;;14.20;;
75667;SDS011;64266;48.798;44.756;2022-12-18T06:03:10;36.67;;;13.50;;
75667;SDS011;64266;48.798;44.756;2022-12-18T06:05:39;33.65;;;13.70;;
75667;SDS011;64266;48.798;44.756;2022-12-18T06:08:07;34.47;;;13.77;;
75667;SDS011;64266;48.798;44.756;2022-12-18T06:10:34;40.13;;;14.27;;
75667;SDS011;64266;48.798;44.756;2022-12-18T06:12:59;33.10;;;13.77;;
75667;SDS011;64266;48.798;44.756;2022-12-18T06:15:26;42.47;;;14.88;;
75667;SDS011;64266;48.798;44.756;2022-12-18T06:17:52;34.72;;;13.35;;
75667;SDS011;64266;48.798;44.756;2022-12-18T06:20:18;40.03;;;15.57;;
75667;SDS011;64266;48.798;44.756;2022-12-18T06:22:44;45.22;;;14.60;;
75667;SDS011;64266;48.798;44.756;2022-12-18T06:25:10;35.42;;;14.18;;
75667;SDS011;64266;48.798;44.756;2022-12-18T06:27:37;44.85;;;17.10;;
75667;SDS011;64266;48.798;44.756;2022-12-18T06:30:03;42.47;;;16.00;;
75667;SDS011;64266;48.798;44.756;2022-12-18T06:32:30;36.75;;;15.30;;
75667;SDS011;64266;48.798;44.756;2022-12-18T06:34:56;44.17;;;16.10;;
75667;SDS011;64266;48.798;44.756;2022-12-18T06:37:22;34.22;;;14.35;;
75667;SDS011;64266;48.798;44.756;2022-12-18T06:39:52;46.40;;;16.95;;
75667;SDS011;64266;48.798;44.756;2022-12-18T06:42:19;39.10;;;15.80;;
75667;SDS011;64266;48.798;44.756;2022-12-18T06:44:46;54.47;;;15.65;;
75667;SDS011;64266;48.798;44.756;2022-12-18T06:47:11;49.95;;;15.60;;
75667;SDS011;64266;48.798;44.756;2022-12-18T06:49:37;42.15;;;16.63;;
75667;SDS011;64266;48.798;44.756;2022-12-18T06:52:03;48.80;;;16.80;;
75667;SDS011;64266;48.798;44.756;2022-12-18T06:54:29;48.13;;;16.95;;
75667;SDS011;64266;48.798;44.756;2022-12-18T06:56:55;44.45;;;15.23;;
75667;SDS011;64266;48.798;44.756;2022-12-18T06:59:21;42.03;;;16.73;;
75667;SDS011;64266;48.798;44.756;2022-12-18T07:01:47;47.45;;;16.85;;
75667;SDS011;64266;48.798;44.756;2022-12-18T07:04:13;51.65;;;16.05;;
75667;SDS011;64266;48.798;44.756;2022-12-18T07:06:38;49.03;;;15.15;;
75667;SDS011;64266;48.798;44.756;2022-12-18T07:09:04;43.13;;;15.88;;
75667;SDS011;64266;48.798;44.756;2022-12-18T07:11:32;42.22;;;15.90;;
75667;SDS011;64266;48.798;44.756;2022-12-18T07:13:59;40.90;;;15.80;;
75667;SDS011;64266;48.798;44.756;2022-12-18T07:16:25;55.15;;;14.50;;
75667;SDS011;64266;48.798;44.756;2022-12-18T07:18:51;44.65;;;17.25;;
75667;SDS011;64266;48.798;44.756;2022-12-18T07:21:19;38.10;;;14.85;;
75667;SDS011;64266;48.798;44.756;2022-12-18T07:23:46;44.22;;;15.85;;
75667;SDS011;64266;48.798;44.756;2022-12-18T07:26:13;42.05;;;15.98;;
75667;SDS011;64266;48.798;44.756;2022-12-18T07:28:41;36.88;;;15.27;;
75667;SDS011;64266;48.798;44.756;2022-12-18T07:31:08;40.90;;;15.65;;
75667;SDS011;64266;48.798;44.756;2022-12-18T07:33:36;46.88;;;14.90;;
75667;SDS011;64266;48.798;44.756;2022-12-18T07:36:03;35.08;;;14.77;;
75667;SDS011;64266;48.798;44.756;2022-12-18T07:38:31;32.70;;;13.40;;
75667;SDS011;64266;48.798;44.756;2022-12-18T07:41:02;37.45;;;14.57;;
75667;SDS011;64266;48.798;44.756;2022-12-18T07:43:29;49.25;;;13.52;;
75667;SDS011;64266;48.798;44.756;2022-12-18T07:45:56;55.22;;;15.63;;
75667;SDS011;64266;48.798;44.756;2022-12-18T07:48:22;36.47;;;14.02;;
75667;SDS011;64266;48.798;44.756;2022-12-18T07:50:48;44.08;;;13.00;;
75667;SDS011;64266;48.798;44.756;2022-12-18T07:53:15;31.00;;;12.77;;
75667;SDS011;64266;48.798;44.756;2022-12-18T07:55:41;37.83;;;14.02;;
75667;SDS011;64266;48.798;44.756;2022-12-18T07:58:07;31.52;;;13.32;;
75667;SDS011;64266;48.798;44.756;2022-12-18T08:00:33;38.92;;;13.55;;
75667;SDS011;64266;48.798;44.756;2022-12-18T08:03:00;39.22;;;13.65;;
75667;SDS011;64266;48.798;44.756;2022-12-18T08:05:26;30.23;;;11.68;;
75667;SDS011;64266;48.798;44.756;2022-12-18T08:07:52;36.45;;;13.25;;
75667;SDS011;64266;48.798;44.756;2022-12-18T08:10:18;40.83;;;12.93;;
75667;SDS011;64266;48.798;44.756;2022-12-18T08:12:44;33.53;;;12.07;;
75667;SDS011;64266;48.798;44.756;2022-12-18T08:15:10;36.20;;;13.15;;
75667;SDS011;64266;48.798;44.756;2022-12-18T08:17:36;37.83;;;13.80;;
75667;SDS011;64266;48.798;44.756;2022-12-18T08:20:02;36.65;;;12.80;;
75667;SDS011;64266;48.798;44.756;2022-12-18T08:22:28;38.42;;;13.00;;
75667;SDS011;64266;48.798;44.756;2022-12-18T08:24:54;37.58;;;12.85;;
75667;SDS011;64266;48.798;44.756;2022-12-18T08:27:20;40.40;;;14.68;;
75667;SDS011;64266;48.798;44.756;2022-12-18T08:29:46;30.17;;;12.02;;
75667;SDS011;64266;48.798;44.756;2022-12-18T08:32:12;30.20;;;11.77;;
75667;SDS011;64266;48.798;44.756;2022-12-18T08:34:38;35.22;;;13.38;;
75667;SDS011;64266;48.798;44.756;2022-12-18T08:37:04;43.53;;;13.15;;
75667;SDS011;64266;48.798;44.756;2022-12-18T08:39:30;42.00;;;12.27;;
75667;SDS011;64266;48.798;44.756;2022-12-18T08:41:56;31.00;;;12.38;;
75667;SDS011;64266;48.798;44.756;2022-12-18T08:44:41;35.28;;;12.43;;
75667;SDS011;64266;48.798;44.756;2022-12-18T08:47:07;32.40;;;11.48;;
75667;SDS011;64266;48.798;44.756;2022-12-18T08:49:33;51.63;;;13.23;;
75667;SDS011;64266;48.798;44.756;2022-12-18T08:52:01;33.90;;;12.80;;
75667;SDS011;64266;48.798;44.756;2022-12-18T08:54:29;30.65;;;11.13;;
75667;SDS011;64266;48.798;44.756;2022-12-18T08:56:55;32.58;;;12.50;;
75667;SDS011;64266;48.798;44.756;2022-12-18T08:59:21;35.97;;;12.48;;
75667;SDS011;64266;48.798;44.756;2022-12-18T09:01:46;32.60;;;12.95;;
75667;SDS011;64266;48.798;44.756;2022-12-18T09:04:12;29.67;;;12.27;;
75667;SDS011;64266;48.798;44.756;2022-12-18T09:06:39;30.13;;;12.45;;
75667;SDS011;64266;48.798;44.756;2022-12-18T09:09:05;30.55;;;12.50;;
75667;SDS011;64266;48.798;44.756;2022-12-18T09:11:32;32.03;;;12.50;;
75667;SDS011;64266;48.798;44.756;2022-12-18T09:13:59;32.80;;;11.95;;
75667;SDS011;64266;48.798;44.756;2022-12-18T09:16:26;33.92;;;13.45;;
75667;SDS011;64266;48.798;44.756;2022-12-18T09:18:54;35.90;;;13.57;;
75667;SDS011;64266;48.798;44.756;2022-12-18T09:21:25;28.75;;;12.75;;
75667;SDS011;64266;48.798;44.756;2022-12-18T09:23:53;35.38;;;13.52;;
75667;SDS011;64266;48.798;44.756;2022-12-18T09:26:21;34.42;;;14.32;;
75667;SDS011;64266;48.798;44.756;2022-12-18T09:28:48;37.60;;;13.82;;
75667;SDS011;64266;48.798;44.756;2022-12-18T09:31:14;32.28;;;13.35;;
75667;SDS011;64266;48.798;44.756;2022-12-18T09:33:40;33.33;;;15.23;;
75667;SDS011;64266;48.798;44.756;2022-12-18T09:36:07;33.35;;;13.80;;
75667;SDS011;64266;48.798;44.756;2022-12-18T09:38:35;29.02;;;12.25;;
75667;SDS011;64266;48.798;44.756;2022-12-18T09:41:17;33.78;;;14.32;;
75667;SDS011;64266;48.798;44.756;2022-12-18T09:44:05;35.78;;;14.20;;
75667;SDS011;64266;48.798;44.756;2022-12-18T09:46:40;35.90;;;13.65;;
75667;SDS011;64266;48.798;44.756;2022-12-18T09:49:13;36.00;;;13.25;;
75667;SDS011;64266;48.798;44.756;2022-12-18T09:51:46;35.22;;;13.82;;
75667;SDS011;64266;48.798;44.756;2022-12-18T09:54:18;38.70;;;14.32;;
75667;SDS011;64266;48.798;44.756;2022-12-18T09:56:48;40.63;;;14.65;;
75667;SDS011;64266;48.798;44.756;2022-12-18T09:59:17;46.83;;;14.70;;
75667;SDS011;64266;48.798;44.756;2022-12-18T10:01:49;38.00;;;14.55;;
75667;SDS011;64266;48.798;44.756;2022-12-18T10:04:15;36.60;;;13.88;;
75667;SDS011;64266;48.798;44.756;2022-12-18T10:09:22;36.67;;;13.27;;
75667;SDS011;64266;48.798;44.756;2022-12-18T10:20:34;33.55;;;13.85;;
75667;SDS011;64266;48.798;44.756;2022-12-18T10:23:28;37.00;;;14.10;;
75667;SDS011;64266;48.798;44.756;2022-12-18T10:26:10;43.10;;;15.32;;
75667;SDS011;64266;48.798;44.756;2022-12-18T10:31:12;38.15;;;13.90;;
75667;SDS011;64266;48.798;44.756;2022-12-18T10:33:42;33.25;;;13.20;;
75667;SDS011;64266;48.798;44.756;2022-12-18T10:36:08;33.90;;;14.10;;
75667;SDS011;64266;48.798;44.756;2022-12-18T10:38:34;36.45;;;13.35;;
75667;SDS011;64266;48.798;44.756;2022-12-18T10:41:01;35.53;;;14.00;;
75667;SDS011;64266;48.798;44.756;2022-12-18T10:43:34;33.65;;;13.73;;
75667;SDS011;64266;48.798;44.756;2022-12-18T10:46:08;35.67;;;14.43;;
75667;SDS011;64266;48.798;44.756;2022-12-18T10:51:18;36.33;;;14.55;;
75667;SDS011;64266;48.798;44.756;2022-12-18T10:53:50;37.75;;;15.00;;
75667;SDS011;64266;48.798;44.756;2022-12-18T10:56:19;46.17;;;15.15;;
75667;SDS011;64266;48.798;44.756;2022-12-18T10:58:54;40.08;;;15.27;;
75667;SDS011;64266;48.798;44.756;2022-12-18T11:01:22;41.08;;;15.43;;
75667;SDS011;64266;48.798;44.756;2022-12-18T11:06:22;35.25;;;12.98;;
75667;SDS011;64266;48.798;44.756;2022-12-18T11:09:00;39.53;;;14.45;;
75667;SDS011;64266;48.798;44.756;2022-12-18T11:11:27;30.95;;;13.00;;
75667;SDS011;64266;48.798;44.756;2022-12-18T11:14:04;39.95;;;13.25;;
75667;SDS011;64266;48.798;44.756;2022-12-18T11:16:53;41.47;;;15.82;;
75667;SDS011;64266;48.798;44.756;2022-12-18T11:19:33;33.75;;;12.68;;
75667;SDS011;64266;48.798;44.756;2022-12-18T11:22:01;32.45;;;13.70;;
75667;SDS011;64266;48.798;44.756;2022-12-18T11:24:43;26.05;;;11.90;;
75667;SDS011;64266;48.798;44.756;2022-12-18T11:27:17;26.63;;;12.10;;
75667;SDS011;64266;48.798;44.756;2022-12-18T11:29:44;28.10;;;12.65;;
75667;SDS011;64266;48.798;44.756;2022-12-18T11:35:11;29.08;;;12.68;;
75667;SDS011;64266;48.798;44.756;2022-12-18T11:37:46;33.72;;;13.52;;
75667;SDS011;64266;48.798;44.756;2022-12-18T11:40:20;32.20;;;12.70;;
75667;SDS011;64266;48.798;44.756;2022-12-18T11:43:15;27.67;;;12.95;;
75667;SDS011;64266;48.798;44.756;2022-12-18T11:46:05;32.08;;;12.48;;
75667;SDS011;64266;48.798;44.756;2022-12-18T11:48:49;32.83;;;13.68;;
75667;SDS011;64266;48.798;44.756;2022-12-18T11:51:37;31.50;;;12.80;;
75667;SDS011;64266;48.798;44.756;2022-12-18T11:54:14;36.92;;;13.00;;
75667;SDS011;64266;48.798;44.756;2022-12-18T12:01:48;39.47;;;15.77;;
75667;SDS011;64266;48.798;44.756;2022-12-18T12:17:56;49.38;;;13.00;;
75667;SDS011;64266;48.798;44.756;2022-12-18T12:30:57;48.75;;;14.23;;
75667;SDS011;64266;48.798;44.756;2022-12-18T12:39:16;45.17;;;13.10;;
75667;SDS011;64266;48.798;44.756;2022-12-18T12:41:46;34.03;;;12.85;;
75667;SDS011;64266;48.798;44.756;2022-12-18T12:44:33;40.72;;;13.32;;
75667;SDS011;64266;48.798;44.756;2022-12-18T12:47:16;37.00;;;14.50;;
75667;SDS011;64266;48.798;44.756;2022-12-18T12:49:47;42.97;;;14.18;;
75667;SDS011;64266;48.798;44.756;2022-12-18T12:52:15;49.17;;;14.10;;
75667;SDS011;64266;48.798;44.756;2022-12-18T12:54:49;55.70;;;14.27;;
75667;SDS011;64266;48.798;44.756;2022-12-18T12:57:36;56.40;;;16.00;;
75667;SDS011;64266;48.798;44.756;2022-12-18T13:08:07;55.58;;;15.13;;
75667;SDS011;64266;48.798;44.756;2022-12-18T13:10:39;47.28;;;15.02;;
75667;SDS011;64266;48.798;44.756;2022-12-18T13:13:08;62.83;;;16.55;;
75667;SDS011;64266;48.798;44.756;2022-12-18T13:15:45;49.58;;;16.63;;
75667;SDS011;64266;48.798;44.756;2022-12-18T13:18:16;47.13;;;14.85;;
75667;SDS011;64266;48.798;44.756;2022-12-18T13:20:45;47.22;;;16.50;;
75667;SDS011;64266;48.798;44.756;2022-12-18T13:25:57;51.95;;;15.75;;
75667;SDS011;64266;48.798;44.756;2022-12-18T13:31:01;59.05;;;17.08;;
75667;SDS011;64266;48.798;44.756;2022-12-18T13:41:39;75.20;;;19.00;;
75667;SDS011;64266;48.798;44.756;2022-12-18T13:43:53;56.90;;;18.33;;
75667;SDS011;64266;48.798;44.756;2022-12-18T13:51:43;56.33;;;17.73;;
75667;SDS011;64266;48.798;44.756;2022-12-18T13:54:19;72.50;;;18.77;;
75667;SDS011;64266;48.798;44.756;2022-12-18T13:57:02;62.88;;;18.83;;
75667;SDS011;64266;48.798;44.756;2022-12-18T13:59:36;52.10;;;16.42;;
75667;SDS011;64266;48.798;44.756;2022-12-18T14:02:17;49.97;;;16.85;;
75667;SDS011;64266;48.798;44.756;2022-12-18T14:04:47;49.50;;;16.48;;
75667;SDS011;64266;48.798;44.756;2022-12-18T14:07:20;58.60;;;20.02;;
75667;SDS011;64266;48.798;44.756;2022-12-18T14:09:49;54.00;;;17.27;;
75667;SDS011;64266;48.798;44.756;2022-12-18T14:12:18;53.90;;;18.02;;
75667;SDS011;64266;48.798;44.756;2022-12-18T14:15:13;42.08;;;14.60;;
75667;SDS011;64266;48.798;44.756;2022-12-18T14:17:56;51.42;;;17.23;;
75667;SDS011;64266;48.798;44.756;2022-12-18T14:20:41;44.00;;;16.80;;
75667;SDS011;64266;48.798;44.756;2022-12-18T14:25:55;45.83;;;16.52;;
75667;SDS011;64266;48.798;44.756;2022-12-18T14:28:21;44.22;;;16.20;;
75667;SDS011;64266;48.798;44.756;2022-12-18T14:30:47;41.50;;;15.68;;
75667;SDS011;64266;48.798;44.756;2022-12-18T14:36:03;40.75;;;15.77;;
75667;SDS011;64266;48.798;44.756;2022-12-18T14:38:39;41.65;;;16.20;;
75667;SDS011;64266;48.798;44.756;2022-12-18T14:41:06;38.28;;;14.98;;
75667;SDS011;64266;48.798;44.756;2022-12-18T14:43:38;40.42;;;15.73;;
75667;SDS011;64266;48.798;44.756;2022-12-18T14:46:50;37.53;;;15.65;;
75667;SDS011;64266;48.798;44.756;2022-12-18T14:48:58;33.92;;;14.80;;
75667;SDS011;64266;48.798;44.756;2022-12-18T14:51:26;37.35;;;16.05;;
75667;SDS011;64266;48.798;44.756;2022-12-18T14:53:56;37.55;;;16.20;;
75667;SDS011;64266;48.798;44.756;2022-12-18T14:56:23;40.65;;;16.77;;
75667;SDS011;64266;48.798;44.756;2022-12-18T14:58:56;35.80;;;16.15;;
75667;SDS011;64266;48.798;44.756;2022-12-18T15:01:27;37.75;;;15.45;;
75667;SDS011;64266;48.798;44.756;2022-12-18T15:03:56;36.15;;;15.60;;
75667;SDS011;64266;48.798;44.756;2022-12-18T15:06:25;41.83;;;18.48;;
75667;SDS011;64266;48.798;44.756;2022-12-18T15:09:00;40.53;;;16.83;;
75667;SDS011;64266;48.798;44.756;2022-12-18T15:11:35;36.38;;;16.63;;
75667;SDS011;64266;48.798;44.756;2022-12-18T15:17:21;40.78;;;16.55;;
75667;SDS011;64266;48.798;44.756;2022-12-18T15:19:53;44.63;;;18.27;;
75667;SDS011;64266;48.798;44.756;2022-12-18T15:22:29;41.13;;;16.90;;
75667;SDS011;64266;48.798;44.756;2022-12-18T15:24:59;44.72;;;18.20;;
75667;SDS011;64266;48.798;44.756;2022-12-18T15:27:30;46.38;;;19.90;;
75667;SDS011;64266;48.798;44.756;2022-12-18T15:32:33;51.63;;;19.40;;
75667;SDS011;64266;48.798;44.756;2022-12-18T15:37:41;52.35;;;19.20;;
75667;SDS011;64266;48.798;44.756;2022-12-18T15:40:11;70.03;;;21.35;;
75667;SDS011;64266;48.798;44.756;2022-12-18T15:42:42;68.03;;;21.80;;
75667;SDS011;64266;48.798;44.756;2022-12-18T15:45:27;66.07;;;21.67;;
75667;SDS011;64266;48.798;44.756;2022-12-18T15:47:53;84.18;;;22.65;;
75667;SDS011;64266;48.798;44.756;2022-12-18T15:50:19;78.45;;;21.23;;
75667;SDS011;64266;48.798;44.756;2022-12-18T15:52:46;87.55;;;22.20;;
75667;SDS011;64266;48.798;44.756;2022-12-18T15:55:19;70.38;;;21.63;;
75667;SDS011;64266;48.798;44.756;2022-12-18T15:58:05;86.40;;;22.40;;
75667;SDS011;64266;48.798;44.756;2022-12-18T16:00:36;116.97;;;25.35;;
75667;SDS011;64266;48.798;44.756;2022-12-18T16:03:04;97.10;;;23.70;;
75667;SDS011;64266;48.798;44.756;2022-12-18T16:05:30;86.25;;;24.63;;
75667;SDS011;64266;48.798;44.756;2022-12-18T16:07:56;85.75;;;23.77;;
75667;SDS011;64266;48.798;44.756;2022-12-18T16:10:21;93.13;;;23.83;;
75667;SDS011;64266;48.798;44.756;2022-12-18T16:12:49;104.95;;;25.23;;
75667;SDS011;64266;48.798;44.756;2022-12-18T16:15:15;130.10;;;27.20;;
75667;SDS011;64266;48.798;44.756;2022-12-18T16:17:42;118.68;;;26.23;;
75667;SDS011;64266;48.798;44.756;2022-12-18T16:20:18;83.57;;;24.50;;
75667;SDS011;64266;48.798;44.756;2022-12-18T16:22:47;112.63;;;24.38;;
75667;SDS011;64266;48.798;44.756;2022-12-18T16:25:18;126.32;;;27.60;;